Time;durP1;ratioP1;P1;durP2;ratioP2;P2;SDS_P1;SDS_P2;PMS_P1;PMS_P2;Temp;Humidity;BMP_temperature;BMP_pressure;BME280_temperature;BME280_humidity;BME280_pressure;Samples;Min_cycle;Max_cycle;Signal;HPM_P1;HPM_P2
2022/04/10 00:01:14;;;;;;;21.25;3.92;;;1.10;99.90;;;;;;5036896;28;20045;-81
2022/04/10 00:03:40;;;;;;;22.10;5.40;;;1.10;99.90;;;;;;5036214;28;20034;-81
2022/04/10 00:06:06;;;;;;;19.13;3.83;;;1.10;99.90;;;;;;5037033;28;20045;-81
2022/04/10 00:08:31;;;;;;;31.58;4.15;;;1.10;99.90;;;;;;5036569;28;20438;-81
2022/04/10 00:10:57;;;;;;;28.15;4.13;;;1.10;99.90;;;;;;5036658;28;20060;-81
2022/04/10 00:13:23;;;;;;;19.70;3.33;;;1.10;99.90;;;;;;5037564;28;20120;-81
2022/04/10 00:15:48;;;;;;;22.23;2.92;;;1.10;99.90;;;;;;5037177;28;20045;-82
2022/04/10 00:18:14;;;;;;;28.45;5.40;;;1.20;99.90;;;;;;5037083;28;20053;-81
2022/04/10 00:20:39;;;;;;;34.75;4.20;;;1.10;99.90;;;;;;5037409;28;20416;-81
2022/04/10 00:23:05;;;;;;;23.00;5.15;;;1.10;99.90;;;;;;5037395;28;20131;-81
2022/04/10 00:25:31;;;;;;;18.80;3.30;;;1.00;99.90;;;;;;5037410;28;20053;-81
2022/04/10 00:27:57;;;;;;;22.85;3.28;;;1.00;99.90;;;;;;5038670;28;20076;-81
2022/04/10 00:30:23;;;;;;;17.05;3.30;;;1.00;99.90;;;;;;5037375;28;20060;-81
2022/04/10 00:32:49;;;;;;;19.75;4.28;;;1.00;99.90;;;;;;5040115;28;20401;-81
2022/04/10 00:35:14;;;;;;;19.67;4.35;;;0.90;99.90;;;;;;5041243;28;20400;-81
2022/04/10 00:37:40;;;;;;;21.33;4.43;;;0.90;99.90;;;;;;5041068;28;20041;-81
2022/04/10 00:40:08;;;;;;;26.05;4.28;;;1.00;99.90;;;;;;5041352;28;20037;-81
2022/04/10 00:42:36;;;;;;;25.40;4.40;;;0.90;99.90;;;;;;5042496;28;20051;-81
2022/04/10 00:45:03;;;;;;;28.77;5.68;;;0.90;99.90;;;;;;5041900;28;20446;-81
2022/04/10 00:47:28;;;;;;;28.90;3.63;;;0.90;99.90;;;;;;5041525;28;20048;-81
2022/04/10 00:49:57;;;;;;;18.08;3.95;;;0.80;99.90;;;;;;5025117;28;20045;-81
2022/04/10 00:52:24;;;;;;;25.42;5.22;;;0.90;99.90;;;;;;5045256;28;20116;-81
2022/04/10 00:54:50;;;;;;;23.70;5.03;;;1.60;99.90;;;;;;5043277;28;20416;-81
2022/04/10 00:57:16;;;;;;;18.83;3.25;;;1.10;99.90;;;;;;5042144;28;20052;-80
2022/04/10 00:59:42;;;;;;;23.70;5.05;;;1.20;99.90;;;;;;5042567;28;20052;-81
2022/04/10 01:02:07;;;;;;;29.92;6.00;;;1.20;99.90;;;;;;5042240;28;20037;-81
2022/04/10 01:04:33;;;;;;;20.67;4.50;;;1.30;99.90;;;;;;5043265;28;20037;-81
2022/04/10 01:07:00;;;;;;;23.80;4.75;;;1.30;99.90;;;;;;5043479;28;20038;-81
2022/04/10 01:09:27;;;;;;;25.17;4.18;;;1.30;99.90;;;;;;5041408;28;20033;-81
2022/04/10 01:11:53;;;;;;;16.58;3.13;;;1.20;99.90;;;;;;5043207;28;20041;-81
2022/04/10 01:14:20;;;;;;;15.73;2.90;;;1.10;99.90;;;;;;5041585;28;20064;-81
2022/04/10 01:16:49;;;;;;;22.17;3.33;;;1.80;99.90;;;;;;5041785;28;20079;-81
2022/04/10 01:19:16;;;;;;;19.52;3.55;;;1.00;99.90;;;;;;5039827;28;20037;-81
2022/04/10 01:21:44;;;;;;;14.63;3.63;;;1.00;99.90;;;;;;5040000;28;20436;-81
2022/04/10 01:24:11;;;;;;;19.58;4.15;;;0.90;99.90;;;;;;5040867;28;20038;-81
2022/04/10 01:26:37;;;;;;;18.60;3.30;;;0.90;99.90;;;;;;5039566;28;20046;-81
2022/04/10 01:29:05;;;;;;;16.67;3.95;;;0.90;99.90;;;;;;5038513;28;20103;-81
2022/04/10 01:31:32;;;;;;;25.85;5.38;;;0.80;99.90;;;;;;5041163;28;20113;-80
2022/04/10 01:34:05;;;;;;;20.55;3.80;;;1.50;99.90;;;;;;5046352;28;20077;-80
2022/04/10 01:36:31;;;;;;;25.35;3.38;;;0.80;99.90;;;;;;5045727;28;20071;-81
2022/04/10 01:38:58;;;;;;;20.40;5.82;;;0.80;99.90;;;;;;5048076;28;20033;-81
2022/04/10 01:41:25;;;;;;;19.50;3.33;;;0.80;99.90;;;;;;5045253;28;20124;-80
2022/04/10 01:43:52;;;;;;;15.88;3.80;;;0.80;99.90;;;;;;5057368;22;20057;-80
2022/04/10 01:46:18;;;;;;;21.92;4.95;;;0.80;99.90;;;;;;5001374;28;20054;-79
2022/04/10 01:48:45;;;;;;;36.63;5.65;;;0.80;99.90;;;;;;5011967;28;20054;-80
2022/04/10 01:51:11;;;;;;;16.10;2.97;;;0.60;99.90;;;;;;5012932;28;20038;-80
2022/04/10 01:53:37;;;;;;;18.27;3.45;;;0.70;99.90;;;;;;5000842;28;20709;-79
2022/04/10 01:56:04;;;;;;;14.60;3.88;;;0.70;99.90;;;;;;4996103;28;20061;-80
2022/04/10 01:58:33;;;;;;;10.30;3.65;;;0.70;99.90;;;;;;4996313;28;20042;-79
2022/04/10 02:01:01;;;;;;;14.73;3.40;;;0.70;99.90;;;;;;5008725;28;20393;-80
2022/04/10 02:03:27;;;;;;;17.08;3.72;;;0.70;99.90;;;;;;5015934;28;20046;-79
2022/04/10 02:05:53;;;;;;;28.23;4.53;;;0.60;99.90;;;;;;5015577;28;20443;-80
2022/04/10 02:08:19;;;;;;;27.98;5.10;;;0.60;99.90;;;;;;5015671;28;20093;-79
2022/04/10 02:10:45;;;;;;;16.77;4.55;;;0.60;99.90;;;;;;5015243;28;20069;-79
2022/04/10 02:13:10;;;;;;;34.45;5.38;;;0.70;99.90;;;;;;5015620;28;20100;-79
2022/04/10 02:15:36;;;;;;;18.20;4.15;;;0.70;99.90;;;;;;5015519;28;20488;-79
2022/04/10 02:18:02;;;;;;;18.67;3.58;;;0.60;99.90;;;;;;5015419;28;20038;-79
2022/04/10 02:20:28;;;;;;;14.45;3.97;;;0.60;99.90;;;;;;5015214;28;20046;-79
2022/04/10 02:22:54;;;;;;;20.58;4.20;;;0.50;99.90;;;;;;5015158;28;20046;-79
2022/04/10 02:25:20;;;;;;;25.92;5.88;;;0.50;99.90;;;;;;5015010;28;20049;-80
2022/04/10 02:27:45;;;;;;;18.98;3.70;;;0.40;99.90;;;;;;5015470;28;20492;-79
2022/04/10 02:30:12;;;;;;;12.95;3.83;;;0.30;99.90;;;;;;5015265;28;20558;-80
2022/04/10 02:32:41;;;;;;;20.40;3.92;;;0.30;99.90;;;;;;5015093;28;20519;-80
2022/04/10 02:35:08;;;;;;;25.80;3.88;;;0.30;99.90;;;;;;5014932;28;20480;-80
2022/04/10 02:37:34;;;;;;;15.95;3.50;;;0.30;99.90;;;;;;5014939;28;20378;-79
2022/04/10 02:40:00;;;;;;;19.02;3.38;;;0.30;99.90;;;;;;5015207;28;20077;-79
2022/04/10 02:42:27;;;;;;;19.80;3.72;;;0.30;99.90;;;;;;5014974;28;20088;-80
2022/04/10 02:44:53;;;;;;;13.68;3.40;;;0.30;99.90;;;;;;5013768;28;20096;-79
2022/04/10 02:47:19;;;;;;;18.55;5.22;;;0.40;99.90;;;;;;5014978;28;20045;-80
2022/04/10 02:49:45;;;;;;;16.75;3.95;;;0.50;99.90;;;;;;5014788;28;20052;-79
2022/04/10 02:52:10;;;;;;;17.27;3.80;;;0.50;99.90;;;;;;5014456;28;20419;-80
2022/04/10 02:54:36;;;;;;;12.15;3.17;;;0.50;99.90;;;;;;5014918;28;20484;-79
2022/04/10 02:57:01;;;;;;;22.90;3.42;;;0.60;99.90;;;;;;5014432;28;20053;-80
2022/04/10 02:59:27;;;;;;;30.90;4.05;;;0.60;99.90;;;;;;5014440;28;20046;-80
2022/04/10 03:01:52;;;;;;;24.52;3.33;;;0.50;99.90;;;;;;5014737;28;20045;-80
2022/04/10 03:04:18;;;;;;;23.38;3.10;;;0.50;99.90;;;;;;5014633;28;20484;-80
2022/04/10 03:06:44;;;;;;;30.75;4.05;;;0.50;99.90;;;;;;5014196;28;20053;-80
2022/04/10 03:09:09;;;;;;;21.85;4.70;;;0.60;99.90;;;;;;5014454;28;20073;-80
2022/04/10 03:11:35;;;;;;;21.33;3.90;;;0.60;99.90;;;;;;5014495;28;20034;-80
2022/04/10 03:14:00;;;;;;;16.30;3.40;;;0.80;99.90;;;;;;5014525;28;20515;-80
2022/04/10 03:16:26;;;;;;;12.82;5.30;;;1.20;99.90;;;;;;5014323;28;20073;-80
2022/04/10 03:18:52;;;;;;;8.73;2.17;;;1.50;99.90;;;;;;5014341;28;20038;-80
2022/04/10 03:21:18;;;;;;;14.85;2.08;;;1.60;99.90;;;;;;5014189;28;20042;-79
2022/04/10 03:23:44;;;;;;;11.27;1.60;;;1.50;99.90;;;;;;5014398;28;20067;-79
2022/04/10 03:26:10;;;;;;;17.73;3.20;;;1.50;99.90;;;;;;4992742;28;20041;-79
2022/04/10 03:28:35;;;;;;;14.23;2.80;;;1.50;99.90;;;;;;5013946;28;20377;-77
2022/04/10 03:31:01;;;;;;;12.52;3.83;;;1.50;99.90;;;;;;5013940;28;20058;-77
2022/04/10 03:33:27;;;;;;;16.52;2.40;;;1.50;99.90;;;;;;5014266;28;20052;-79
2022/04/10 03:35:53;;;;;;;12.15;2.55;;;1.40;99.90;;;;;;5014058;28;20463;-78
2022/04/10 03:38:18;;;;;;;11.18;2.20;;;1.40;99.90;;;;;;5013794;28;20042;-77
2022/04/10 03:40:44;;;;;;;13.80;2.38;;;1.30;99.90;;;;;;5013696;28;20522;-77
2022/04/10 03:43:11;;;;;;;7.28;2.40;;;1.30;99.90;;;;;;5013523;28;20076;-77
2022/04/10 03:45:38;;;;;;;16.15;3.50;;;1.30;99.90;;;;;;5013854;28;20400;-77
2022/04/10 03:48:05;;;;;;;12.68;3.15;;;1.30;99.90;;;;;;5013619;28;20046;-77
2022/04/10 03:50:30;;;;;;;12.35;2.67;;;1.40;99.90;;;;;;5013453;28;20038;-77
2022/04/10 03:52:56;;;;;;;13.82;2.55;;;1.50;99.90;;;;;;5006782;28;20057;-77
2022/04/10 03:55:21;;;;;;;14.75;2.30;;;1.60;99.90;;;;;;5013241;28;20080;-77
2022/04/10 03:57:47;;;;;;;10.05;2.60;;;1.60;99.90;;;;;;5013633;28;20077;-77
2022/04/10 04:00:13;;;;;;;17.52;2.13;;;1.80;99.90;;;;;;5013467;28;20045;-77
2022/04/10 04:02:42;;;;;;;16.48;2.28;;;1.80;99.90;;;;;;5004597;28;20103;-77
2022/04/10 04:05:09;;;;;;;12.20;1.58;;;1.90;99.90;;;;;;5012117;28;20042;-77
2022/04/10 04:07:35;;;;;;;9.05;2.20;;;1.90;99.90;;;;;;5013450;28;20046;-77
2022/04/10 04:10:01;;;;;;;13.00;2.15;;;2.00;99.90;;;;;;5013399;28;20476;-77
2022/04/10 04:12:27;;;;;;;5.25;1.52;;;1.90;99.90;;;;;;5013191;28;20050;-77
2022/04/10 04:14:52;;;;;;;11.52;1.75;;;1.80;99.90;;;;;;5013302;28;20546;-77
2022/04/10 04:17:18;;;;;;;7.53;2.65;;;1.90;99.90;;;;;;5013187;28;20467;-77
2022/04/10 04:19:46;;;;;;;10.98;1.90;;;1.80;99.90;;;;;;5013051;28;20050;-78
2022/04/10 04:22:11;;;;;;;7.15;1.75;;;1.70;99.90;;;;;;5013283;28;20070;-78
2022/04/10 04:24:37;;;;;;;5.93;1.60;;;1.60;99.90;;;;;;5013153;28;20050;-77
2022/04/10 04:27:03;;;;;;;10.63;1.48;;;1.60;99.90;;;;;;5012981;28;20400;-77
2022/04/10 04:29:28;;;;;;;8.13;1.30;;;1.50;99.90;;;;;;5013089;28;20065;-77
2022/04/10 04:31:56;;;;;;;9.82;2.22;;;1.40;99.90;;;;;;5013321;28;20073;-77
2022/04/10 04:34:22;;;;;;;8.95;1.42;;;1.50;99.90;;;;;;5012932;28;20046;-77
2022/04/10 04:36:48;;;;;;;9.98;1.45;;;1.40;99.90;;;;;;5012858;28;20485;-77
2022/04/10 04:39:13;;;;;;;9.57;1.48;;;1.40;99.90;;;;;;5012879;28;20034;-77
2022/04/10 04:41:39;;;;;;;9.63;1.30;;;1.30;99.90;;;;;;5013036;28;20038;-77
2022/04/10 04:44:05;;;;;;;16.00;1.73;;;1.30;99.90;;;;;;5012497;28;20174;-77
2022/04/10 04:46:30;;;;;;;8.25;1.58;;;1.30;99.90;;;;;;5010677;28;20049;-77
2022/04/10 04:48:56;;;;;;;10.00;1.45;;;1.40;99.90;;;;;;5012729;28;20041;-78
2022/04/10 04:51:21;;;;;;;6.90;1.73;;;1.40;99.90;;;;;;5012644;28;20046;-77
2022/04/10 04:53:47;;;;;;;7.13;1.58;;;1.40;99.90;;;;;;5012938;28;20104;-77
2022/04/10 04:56:13;;;;;;;8.43;1.30;;;1.30;99.90;;;;;;5012994;28;20455;-77
2022/04/10 04:58:38;;;;;;;12.68;1.45;;;1.20;99.90;;;;;;5012626;28;20060;-77
2022/04/10 05:01:04;;;;;;;7.38;1.20;;;1.20;99.90;;;;;;5012789;28;20077;-77
2022/04/10 05:03:29;;;;;;;7.78;1.58;;;1.20;99.90;;;;;;5012843;28;20045;-77
2022/04/10 05:05:55;;;;;;;9.48;1.77;;;1.20;99.90;;;;;;5012752;28;20042;-77
2022/04/10 05:08:20;;;;;;;13.18;3.67;;;1.10;99.90;;;;;;5014490;28;20107;-77
2022/04/10 05:10:47;;;;;;;6.63;1.65;;;1.20;99.90;;;;;;5016537;28;20108;-77
2022/04/10 05:13:12;;;;;;;9.05;1.73;;;1.20;99.90;;;;;;5016446;28;20042;-79
2022/04/10 05:15:38;;;;;;;10.35;1.95;;;1.30;99.90;;;;;;5016670;28;20049;-80
2022/04/10 05:18:04;;;;;;;3.72;1.30;;;1.40;99.90;;;;;;5016351;28;20084;-77
2022/04/10 05:20:29;;;;;;;6.72;1.40;;;1.40;99.90;;;;;;5016343;28;20049;-79
2022/04/10 05:22:56;;;;;;;5.85;2.45;;;1.60;99.90;;;;;;5009813;28;20038;-79
2022/04/10 05:25:22;;;;;;;9.85;1.90;;;1.60;99.90;;;;;;5016163;28;20080;-79
2022/04/10 05:27:47;;;;;;;5.97;1.38;;;1.60;99.90;;;;;;5016419;28;20042;-79
2022/04/10 05:30:13;;;;;;;9.10;1.73;;;1.60;99.90;;;;;;5016361;28;20053;-79
2022/04/10 05:32:42;;;;;;;4.78;1.30;;;1.60;99.90;;;;;;5016213;28;20045;-79
2022/04/10 05:35:08;;;;;;;11.85;2.45;;;1.60;99.90;;;;;;5016230;28;20060;-79
2022/04/10 05:37:34;;;;;;;5.93;1.30;;;1.60;99.90;;;;;;5016521;28;20132;-79
2022/04/10 05:39:59;;;;;;;9.77;2.15;;;1.60;99.90;;;;;;5016173;28;20073;-78
2022/04/10 05:42:25;;;;;;;7.18;2.03;;;1.60;99.90;;;;;;5015724;28;20081;-78
2022/04/10 05:44:50;;;;;;;9.48;1.73;;;1.70;99.90;;;;;;5016229;28;20053;-79
2022/04/10 05:47:17;;;;;;;8.25;1.98;;;1.70;99.90;;;;;;5015941;28;20046;-78
2022/04/10 05:49:42;;;;;;;6.20;1.75;;;1.70;99.90;;;;;;5016054;28;20425;-78
2022/04/10 05:52:08;;;;;;;8.40;1.77;;;1.70;99.90;;;;;;5016147;28;20092;-78
2022/04/10 05:54:34;;;;;;;5.47;1.70;;;1.90;99.90;;;;;;5015867;28;20042;-79
2022/04/10 05:56:59;;;;;;;5.97;2.10;;;1.90;99.90;;;;;;5016210;28;20690;-79
2022/04/10 05:59:25;;;;;;;11.70;2.17;;;2.10;99.90;;;;;;5016037;28;20492;-80
2022/04/10 06:01:50;;;;;;;13.23;2.17;;;2.10;99.90;;;;;;5015802;28;20038;-79
2022/04/10 06:04:17;;;;;;;4.45;1.73;;;2.20;99.90;;;;;;5015959;28;20038;-79
2022/04/10 06:06:42;;;;;;;10.88;2.80;;;2.30;99.90;;;;;;5015538;28;20046;-79
2022/04/10 06:09:08;;;;;;;6.70;1.77;;;2.50;99.90;;;;;;5015606;28;20164;-79
2022/04/10 06:11:34;;;;;;;9.27;1.77;;;2.70;99.90;;;;;;5015547;28;20507;-80
2022/04/10 06:14:00;;;;;;;7.82;2.10;;;3.00;99.90;;;;;;5015619;28;20507;-80
2022/04/10 06:16:26;;;;;;;5.15;1.65;;;3.10;99.90;;;;;;5015366;28;20085;-80
2022/04/10 06:18:51;;;;;;;7.45;2.30;;;3.00;99.90;;;;;;5015392;28;20038;-79
2022/04/10 06:21:17;;;;;;;15.43;2.50;;;3.00;99.90;;;;;;5015600;28;20045;-80
2022/04/10 06:23:42;;;;;;;7.45;2.05;;;3.10;99.90;;;;;;5015681;28;20052;-80
2022/04/10 06:26:08;;;;;;;14.40;2.55;;;3.20;99.90;;;;;;5015132;28;20041;-80
2022/04/10 06:28:33;;;;;;;10.23;1.85;;;3.40;99.90;;;;;;5015301;28;20129;-79
2022/04/10 06:30:59;;;;;;;9.15;1.77;;;3.20;99.90;;;;;;5015206;28;20125;-79
2022/04/10 06:33:24;;;;;;;6.75;0.95;;;3.30;99.90;;;;;;5015522;28;20048;-79
2022/04/10 06:35:50;;;;;;;7.05;2.00;;;3.30;99.90;;;;;;5007771;28;20137;-79
2022/04/10 06:38:15;;;;;;;7.55;1.60;;;3.20;99.90;;;;;;5015308;28;20042;-79
2022/04/10 06:40:41;;;;;;;6.75;2.15;;;3.20;99.90;;;;;;5015050;28;20125;-80
2022/04/10 06:43:07;;;;;;;10.63;2.58;;;3.20;99.90;;;;;;5015211;28;20048;-79
2022/04/10 06:45:32;;;;;;;15.00;2.58;;;3.40;99.90;;;;;;5015064;28;20046;-79
2022/04/10 06:47:58;;;;;;;11.38;2.53;;;3.60;99.90;;;;;;5015136;28;20053;-79
2022/04/10 06:50:23;;;;;;;8.27;2.25;;;3.80;99.90;;;;;;5014810;28;20096;-79
2022/04/10 06:52:49;;;;;;;11.25;1.73;;;3.70;99.90;;;;;;5014627;28;20053;-80
2022/04/10 06:55:16;;;;;;;18.98;2.13;;;3.60;99.90;;;;;;5014451;28;20430;-81
2022/04/10 06:57:41;;;;;;;6.30;1.40;;;3.20;99.90;;;;;;5014683;28;20038;-81
2022/04/10 07:00:07;;;;;;;8.77;1.77;;;3.00;99.90;;;;;;5014547;28;20045;-81
2022/04/10 07:02:33;;;;;;;7.50;1.35;;;2.80;99.90;;;;;;5014564;28;20045;-80
2022/04/10 07:04:58;;;;;;;6.60;1.50;;;2.70;99.90;;;;;;5014650;28;20046;-81
2022/04/10 07:07:24;;;;;;;7.55;1.90;;;2.50;99.90;;;;;;5011458;28;20041;-81
2022/04/10 07:09:49;;;;;;;16.77;2.00;;;2.60;99.90;;;;;;5014380;28;20042;-81
2022/04/10 07:12:15;;;;;;;9.88;1.85;;;3.40;99.90;;;;;;5014296;28;20488;-80
2022/04/10 07:14:41;;;;;;;8.75;2.17;;;4.40;99.90;;;;;;5014311;28;20042;-81
2022/04/10 07:17:06;;;;;;;8.05;1.70;;;5.10;99.90;;;;;;5014664;28;20056;-81
2022/04/10 07:19:32;;;;;;;6.28;1.50;;;5.90;99.90;;;;;;5014699;28;20124;-81
2022/04/10 07:24:41;;;;;;;3.80;1.20;;;6.90;99.90;;;;;;5014497;28;20112;-81
2022/04/10 07:27:07;;;;;;;9.95;2.00;;;6.90;99.90;;;;;;5014118;28;20050;-81
2022/04/10 07:29:32;;;;;;;5.57;1.63;;;6.80;99.90;;;;;;5014279;28;20046;-80
2022/04/10 07:31:58;;;;;;;8.30;1.40;;;7.10;99.90;;;;;;5013766;28;20046;-80
2022/04/10 07:34:23;;;;;;;10.15;2.10;;;7.00;99.90;;;;;;5014145;28;20124;-80
2022/04/10 07:36:49;;;;;;;8.60;1.60;;;6.60;99.90;;;;;;5014098;28;20045;-80
2022/04/10 07:39:15;;;;;;;12.27;2.03;;;5.90;99.90;;;;;;5009760;28;20046;-80
2022/04/10 07:41:40;;;;;;;7.63;1.73;;;5.30;99.90;;;;;;5013685;28;20484;-80
2022/04/10 07:44:06;;;;;;;9.32;2.90;;;5.10;99.90;;;;;;5013462;28;20061;-80
2022/04/10 07:49:15;;;;;;;7.38;1.58;;;5.20;99.90;;;;;;5013944;28;20042;-80
2022/04/10 07:51:41;;;;;;;11.40;2.03;;;5.90;99.90;;;;;;5013663;28;20037;-80
2022/04/10 07:54:11;;;;;;;8.80;1.73;;;6.60;99.90;;;;;;5013624;28;20045;-80
2022/04/10 07:56:36;;;;;;;13.20;1.63;;;7.20;99.90;;;;;;5013869;28;20049;-80
2022/04/10 07:59:02;;;;;;;6.13;1.67;;;7.60;99.90;;;;;;5013666;28;20045;-80
2022/04/10 08:01:27;;;;;;;8.43;1.80;;;7.90;99.90;;;;;;5013994;28;20056;-80
2022/04/10 08:03:53;;;;;;;6.40;1.83;;;8.00;99.90;;;;;;5013882;28;20065;-80
2022/04/10 08:06:19;;;;;;;9.77;1.92;;;8.20;99.90;;;;;;5013355;28;20037;-80
2022/04/10 08:08:45;;;;;;;8.27;1.27;;;8.50;99.90;;;;;;5013587;28;20041;-80
2022/04/10 08:11:11;;;;;;;10.38;1.80;;;8.60;99.90;;;;;;5013390;28;20053;-80
2022/04/10 08:13:36;;;;;;;9.07;1.90;;;9.00;99.90;;;;;;5013915;28;20435;-80
2022/04/10 08:16:02;;;;;;;9.50;1.33;;;9.00;99.90;;;;;;5013532;28;20050;-80
2022/04/10 08:18:27;;;;;;;16.85;3.78;;;9.20;99.90;;;;;;5010883;28;20049;-80
2022/04/10 08:20:53;;;;;;;12.32;1.85;;;9.10;99.90;;;;;;5013298;28;20072;-80
2022/04/10 08:23:19;;;;;;;6.15;1.25;;;9.30;99.90;;;;;;5013214;28;20083;-80
2022/04/10 08:25:44;;;;;;;7.20;2.05;;;9.40;99.90;;;;;;5012945;28;20085;-80
2022/04/10 08:28:10;;;;;;;7.65;1.85;;;9.40;99.90;;;;;;5013344;28;20054;-79
2022/04/10 08:30:35;;;;;;;8.07;1.63;;;9.70;99.90;;;;;;5013502;28;20064;-80
2022/04/10 08:33:01;;;;;;;7.38;1.98;;;9.90;99.90;;;;;;5013181;28;20523;-80
2022/04/10 08:35:27;;;;;;;11.35;2.28;;;9.90;99.90;;;;;;5012984;28;20495;-79
2022/04/10 08:37:52;;;;;;;8.30;1.65;;;10.00;99.90;;;;;;5013068;28;20053;-80
2022/04/10 08:40:19;;;;;;;8.73;1.60;;;9.60;99.90;;;;;;5012913;28;20038;-80
2022/04/10 08:42:44;;;;;;;8.70;1.75;;;9.60;99.90;;;;;;5012832;28;20065;-79
2022/04/10 08:45:10;;;;;;;7.20;2.03;;;9.40;99.90;;;;;;5013049;28;20045;-80
2022/04/10 08:47:38;;;;;;;11.73;1.85;;;8.70;99.90;;;;;;5012999;28;20048;-80
2022/04/10 08:50:05;;;;;;;13.10;1.80;;;8.90;99.90;;;;;;5012705;28;20443;-80
2022/04/10 08:52:31;;;;;;;10.43;1.40;;;8.70;99.90;;;;;;5010844;28;20038;-81
2022/04/10 08:54:57;;;;;;;9.50;1.75;;;9.20;99.90;;;;;;5013209;28;20400;-80
2022/04/10 08:57:22;;;;;;;10.63;1.73;;;9.30;99.90;;;;;;5012635;28;20053;-80
2022/04/10 08:59:48;;;;;;;14.80;1.70;;;9.30;99.90;;;;;;5013109;28;20064;-80
2022/04/10 09:02:13;;;;;;;8.10;1.70;;;8.40;99.90;;;;;;5012948;28;20065;-80
2022/04/10 09:04:40;;;;;;;5.75;1.60;;;8.00;99.90;;;;;;5012833;28;20057;-80
2022/04/10 09:07:08;;;;;;;9.52;1.63;;;7.60;99.90;;;;;;5012565;28;20447;-80
2022/04/10 09:09:35;;;;;;;8.40;1.67;;;8.20;99.90;;;;;;5011255;28;20245;-80
2022/04/10 09:12:01;;;;;;;9.73;1.88;;;8.90;99.90;;;;;;5012684;28;20074;-80
2022/04/10 09:14:28;;;;;;;8.55;1.92;;;9.20;99.90;;;;;;5012922;28;20050;-80
2022/04/10 09:17:17;;;;;;;10.52;2.05;;;9.00;99.90;;;;;;5005800;28;20078;-80
2022/04/10 09:19:47;;;;;;;9.05;1.75;;;8.90;99.90;;;;;;5012375;28;20050;-80
2022/04/10 09:22:23;;;;;;;7.88;1.58;;;9.60;99.90;;;;;;5013003;28;20048;-80
2022/04/10 09:25:11;;;;;;;6.07;1.88;;;9.90;99.90;;;;;;5012752;28;20096;-80
2022/04/10 09:27:43;;;;;;;6.10;1.17;;;9.60;99.90;;;;;;5012570;28;20041;-80
2022/04/10 09:30:32;;;;;;;7.22;2.25;;;9.90;99.90;;;;;;5012327;28;20038;-80
2022/04/10 09:32:58;;;;;;;11.35;2.22;;;10.30;99.90;;;;;;5012503;28;20381;-80
2022/04/10 09:35:24;;;;;;;6.57;1.77;;;10.50;99.90;;;;;;5012372;28;20097;-80
2022/04/10 09:37:55;;;;;;;7.72;1.42;;;10.20;97.10;;;;;;5012824;28;20046;-80
2022/04/10 09:40:29;;;;;;;3.30;0.90;;;9.90;99.90;;;;;;5012707;28;20049;-80
2022/04/10 09:43:06;;;;;;;4.68;1.33;;;10.10;97.50;;;;;;5012386;28;20049;-78
2022/04/10 09:45:35;;;;;;;11.82;1.60;;;10.30;95.10;;;;;;5012795;28;20046;-78
2022/04/10 09:48:24;;;;;;;7.47;1.55;;;10.10;96.30;;;;;;5012611;28;20137;-77
2022/04/10 09:50:57;;;;;;;7.40;0.88;;;10.20;99.70;;;;;;5012189;28;20042;-78
2022/04/10 09:53:23;;;;;;;7.28;1.05;;;10.10;98.00;;;;;;5009684;28;20057;-78
2022/04/10 09:56:03;;;;;;;5.25;1.15;;;10.20;97.80;;;;;;5015938;28;20046;-78
2022/04/10 09:58:30;;;;;;;7.80;1.65;;;10.30;98.00;;;;;;5015852;28;20124;-78
2022/04/10 10:00:57;;;;;;;4.68;1.00;;;10.30;98.40;;;;;;5015938;28;20053;-78
2022/04/10 10:03:25;;;;;;;8.00;1.05;;;10.50;98.20;;;;;;5015558;28;20411;-78
2022/04/10 10:05:52;;;;;;;7.57;2.00;;;10.90;98.80;;;;;;5008178;28;20042;-78
2022/04/10 10:08:18;;;;;;;4.57;1.20;;;11.10;95.80;;;;;;5014830;28;20124;-78
2022/04/10 10:10:44;;;;;;;11.60;2.38;;;11.60;96.80;;;;;;5015438;28;20129;-78
2022/04/10 10:13:13;;;;;;;7.95;1.10;;;12.10;91.70;;;;;;5015761;28;20046;-78
2022/04/10 10:15:40;;;;;;;9.00;1.90;;;12.00;82.50;;;;;;5015401;28;20061;-78
2022/04/10 10:18:11;;;;;;;7.68;1.20;;;12.10;77.10;;;;;;5015391;28;20054;-78
2022/04/10 10:20:38;;;;;;;6.65;1.52;;;12.20;72.30;;;;;;5014204;28;20052;-78
2022/04/10 10:23:08;;;;;;;9.45;1.77;;;12.00;96.80;;;;;;5015446;28;20080;-79
2022/04/10 10:25:54;;;;;;;8.97;1.53;;;11.00;95.40;;;;;;5013555;28;20050;-77
2022/04/10 10:28:41;;;;;;;6.80;1.58;;;10.80;97.70;;;;;;5015294;28;20049;-78
2022/04/10 10:31:19;;;;;;;7.53;2.10;;;10.90;98.20;;;;;;5015807;28;20408;-78
2022/04/10 10:33:54;;;;;;;8.25;2.30;;;10.40;98.20;;;;;;5015498;28;20045;-78
2022/04/10 10:36:28;;;;;;;5.30;1.42;;;9.90;99.90;;;;;;5015007;28;20056;-78
2022/04/10 10:38:55;;;;;;;6.60;1.00;;;9.30;99.90;;;;;;5015336;28;20081;-78
2022/04/10 10:41:24;;;;;;;10.18;1.92;;;9.40;97.40;;;;;;5015184;28;20125;-78
2022/04/10 10:43:51;;;;;;;9.55;1.50;;;9.50;99.90;;;;;;5014971;28;20058;-78
2022/04/10 10:46:33;;;;;;;9.55;1.50;;;10.00;99.90;;;;;;5015313;28;20108;-78
2022/04/10 10:49:19;;;;;;;8.73;1.33;;;9.90;99.90;;;;;;5008654;28;20160;-78
2022/04/10 10:51:45;;;;;;;9.05;1.45;;;10.00;98.10;;;;;;5013610;28;20060;-78
2022/04/10 10:54:34;;;;;;;6.57;1.27;;;9.80;98.70;;;;;;5015417;28;20042;-78
2022/04/10 10:57:19;;;;;;;12.85;2.28;;;9.60;99.20;;;;;;5014728;28;20046;-79
2022/04/10 10:59:45;;;;;;;11.13;1.60;;;9.80;99.90;;;;;;5006529;28;20050;-79
2022/04/10 11:02:17;;;;;;;6.82;1.63;;;10.40;99.90;;;;;;5014503;28;20554;-79
2022/04/10 11:04:50;;;;;;;10.65;1.83;;;11.00;99.90;;;;;;5014098;28;20038;-80
2022/04/10 11:07:18;;;;;;;13.57;1.92;;;11.60;92.80;;;;;;5014547;28;20461;-79
2022/04/10 11:10:00;;;;;;;7.13;1.42;;;12.10;99.90;;;;;;5014628;28;20073;-79
2022/04/10 11:12:33;;;;;;;7.10;1.90;;;12.50;92.50;;;;;;5014514;28;20096;-79
2022/04/10 11:15:29;;;;;;;7.40;1.75;;;12.80;99.90;;;;;;5014655;28;20121;-79
2022/04/10 11:17:55;;;;;;;4.90;1.60;;;12.70;99.80;;;;;;5012875;28;20139;-80
2022/04/10 11:20:22;;;;;;;9.68;1.65;;;12.10;97.10;;;;;;5014528;28;20493;-79
2022/04/10 11:22:49;;;;;;;11.27;1.70;;;11.10;93.80;;;;;;5014301;28;20100;-79
2022/04/10 11:25:18;;;;;;;6.35;1.20;;;10.30;91.50;;;;;;5014440;28;20046;-79
2022/04/10 11:27:53;;;;;;;5.28;1.20;;;10.00;95.40;;;;;;5014265;28;20042;-79
2022/04/10 11:30:28;;;;;;;5.38;1.10;;;10.20;99.60;;;;;;5014146;28;20049;-79
2022/04/10 11:33:02;;;;;;;7.88;1.35;;;10.80;99.90;;;;;;5007126;28;20432;-80
2022/04/10 11:35:32;;;;;;;7.20;1.50;;;11.50;93.90;;;;;;5014142;28;20050;-79
2022/04/10 11:38:12;;;;;;;5.22;1.00;;;11.50;90.40;;;;;;5014184;28;20043;-79
2022/04/10 11:40:40;;;;;;;7.90;1.45;;;11.50;90.40;;;;;;5014010;28;20104;-79
2022/04/10 11:43:08;;;;;;;5.30;1.42;;;12.20;88.70;;;;;;5013650;28;20081;-79
2022/04/10 11:45:34;;;;;;;8.77;2.30;;;13.20;67.70;;;;;;5013884;28;20104;-79
2022/04/10 11:48:05;;;;;;;5.60;1.02;;;13.60;72.40;;;;;;5007667;28;20050;-79
2022/04/10 11:50:32;;;;;;;6.40;1.02;;;13.80;37.20;;;;;;5013711;28;20041;-79
2022/04/10 11:53:10;;;;;;;5.45;1.05;;;13.40;53.70;;;;;;5007260;28;20038;-80
2022/04/10 11:55:44;;;;;;;8.52;1.48;;;13.00;55.00;;;;;;5013339;28;20048;-79
2022/04/10 11:58:16;;;;;;;6.47;0.98;;;12.30;73.30;;;;;;5013335;28;20631;-79
2022/04/10 12:01:03;;;;;;;6.97;1.02;;;11.90;48.60;;;;;;5013882;28;20038;-79
2022/04/10 12:03:30;;;;;;;4.50;1.13;;;11.60;45.20;;;;;;5011998;28;20046;-79
2022/04/10 12:05:57;;;;;;;8.13;1.13;;;11.50;51.70;;;;;;5013455;28;20484;-79
2022/04/10 12:08:24;;;;;;;7.70;1.00;;;12.00;69.10;;;;;;5013234;28;20053;-79
2022/04/10 12:10:57;;;;;;;5.28;1.35;;;12.50;55.00;;;;;;5013397;28;20115;-79
2022/04/10 12:13:34;;;;;;;9.35;1.10;;;13.10;62.50;;;;;;5010273;28;20046;-79
2022/04/10 12:16:16;;;;;;;6.75;1.20;;;13.70;34.00;;;;;;5007179;28;20046;-79
2022/04/10 12:18:51;;;;;;;7.05;1.33;;;14.40;34.00;;;;;;5013213;28;20125;-80
2022/04/10 12:21:18;;;;;;;6.80;1.10;;;13.50;36.70;;;;;;5013081;28;20503;-79
2022/04/10 12:23:47;;;;;;;10.40;1.58;;;12.80;53.40;;;;;;5013380;28;20492;-79
2022/04/10 12:26:13;;;;;;;6.18;0.85;;;11.80;48.30;;;;;;5013018;28;20041;-79
2022/04/10 12:28:42;;;;;;;8.68;1.50;;;12.00;42.40;;;;;;5013239;28;20076;-79
2022/04/10 12:31:08;;;;;;;7.50;1.27;;;12.10;54.60;;;;;;5013253;28;20075;-79
2022/04/10 12:33:35;;;;;;;7.32;1.23;;;12.90;70.70;;;;;;5013440;28;20502;-79
2022/04/10 12:36:24;;;;;;;6.80;1.48;;;12.80;47.10;;;;;;5013274;28;20049;-79
2022/04/10 12:38:54;;;;;;;6.90;1.83;;;11.90;51.70;;;;;;5013149;28;20512;-80
2022/04/10 12:41:30;;;;;;;5.88;1.30;;;11.70;64.30;;;;;;5013088;28;20053;-79
2022/04/10 12:44:02;;;;;;;;;;;12.50;65.80;;;;;;5013346;28;20437;-79
2022/04/10 12:46:38;;;;;;;6.80;1.02;;;13.60;38.40;;;;;;5013130;28;19937;-79
2022/04/10 12:49:14;;;;;;;;;;;15.50;30.90;;;;;;5013734;28;20088;-79
2022/04/10 12:51:55;;;;;;;10.82;2.00;;;13.70;38.70;;;;;;5003905;28;20339;-79
2022/04/10 12:54:41;;;;;;;4.13;1.15;;;13.10;43.00;;;;;;5012763;28;20428;-79
2022/04/10 12:57:12;;;;;;;7.20;1.30;;;12.20;46.40;;;;;;5013048;28;20042;-79
2022/04/10 12:59:49;;;;;;;5.88;1.13;;;11.20;58.50;;;;;;5012929;28;20056;-79